createdAt,value
2023-09-08T00:01:09.268Z,17.63
2023-09-08T00:06:10.892Z,17.56
2023-09-08T00:11:10.566Z,17.48
2023-09-08T00:16:12.712Z,17.42
2023-09-08T00:21:12.155Z,17.36
2023-09-08T00:26:10.997Z,17.30
2023-09-08T00:31:10.890Z,17.25
2023-09-08T00:36:10.888Z,17.20
2023-09-08T00:41:12.777Z,17.17
2023-09-08T00:46:13.797Z,17.13
2023-09-08T00:51:14.709Z,17.10
2023-09-08T00:56:16.036Z,17.10
2023-09-08T01:01:19.136Z,17.09
2023-09-08T01:06:20.613Z,17.07
2023-09-08T01:11:24.436Z,17.06
2023-09-08T01:16:25.141Z,17.05
2023-09-08T01:22:00.769Z,17.03
2023-09-08T01:27:00.590Z,17.02
2023-09-08T01:32:02.081Z,17.00
2023-09-08T01:37:04.145Z,16.96
2023-09-08T01:42:03.686Z,16.94
2023-09-08T01:47:02.584Z,16.92
2023-09-08T01:52:01.909Z,16.90
2023-09-08T01:57:01.958Z,16.88
2023-09-08T02:02:01.815Z,16.87
2023-09-08T02:07:03.041Z,16.85
2023-09-08T02:12:02.650Z,16.82
2023-09-08T02:17:02.309Z,16.80
2023-09-08T02:22:01.681Z,16.79
2023-09-08T02:27:02.203Z,16.76
2023-09-08T02:32:02.816Z,16.75
2023-09-08T02:37:02.051Z,16.73
2023-09-08T02:42:01.473Z,16.73
2023-09-08T02:47:01.463Z,16.71
2023-09-08T02:52:01.466Z,16.70
2023-09-08T02:57:00.955Z,16.69
2023-09-08T03:02:01.406Z,16.67
2023-09-08T03:07:00.970Z,16.66
2023-09-08T03:12:00.966Z,16.65
2023-09-08T03:17:01.827Z,16.64
2023-09-08T03:22:01.414Z,16.62
2023-09-08T03:27:01.185Z,16.60
2023-09-08T03:32:02.062Z,16.58
2023-09-08T03:37:02.084Z,16.55
2023-09-08T03:42:02.095Z,16.53
2023-09-08T03:47:03.821Z,16.50
2023-09-08T03:52:03.704Z,16.49
2023-09-08T03:57:05.205Z,16.46
2023-09-08T04:02:04.922Z,16.44
2023-09-08T04:07:04.986Z,16.42
2023-09-08T04:12:05.530Z,16.40
2023-09-08T04:17:05.510Z,16.38
2023-09-08T04:22:06.259Z,16.38
2023-09-08T04:27:05.429Z,16.38
2023-09-08T04:32:10.275Z,16.37
2023-09-08T04:37:10.270Z,16.38
2023-09-08T04:42:10.882Z,16.38
2023-09-08T04:47:10.441Z,16.39
2023-09-08T04:52:12.618Z,16.41
2023-09-08T04:57:22.944Z,16.45
2023-09-08T05:02:25.881Z,16.49
2023-09-08T05:07:26.133Z,16.54
2023-09-08T05:12:26.241Z,16.62
2023-09-08T05:17:25.364Z,16.70
2023-09-08T05:22:26.402Z,16.80
2023-09-08T05:27:26.927Z,16.88
2023-09-08T05:32:27.547Z,16.96
2023-09-08T05:37:31.414Z,17.05
2023-09-08T05:42:31.200Z,17.14
2023-09-08T05:47:30.461Z,17.23
2023-09-08T05:52:30.104Z,17.33
2023-09-08T05:57:30.093Z,17.44
2023-09-08T06:02:30.428Z,17.55
2023-09-08T06:07:31.173Z,17.68
2023-09-08T06:12:30.970Z,17.80
2023-09-08T06:17:30.375Z,17.94
2023-09-08T06:22:31.371Z,18.07
2023-09-08T06:27:34.000Z,18.22
2023-09-08T06:32:34.241Z,18.37
2023-09-08T06:37:40.456Z,18.52
2023-09-08T06:42:42.536Z,18.70
2023-09-08T06:47:47.142Z,18.87
2023-09-08T06:52:47.371Z,19.06
2023-09-08T06:57:47.285Z,19.24
2023-09-08T07:02:47.412Z,19.41
2023-09-08T07:07:51.255Z,19.57
2023-09-08T07:12:51.081Z,19.75
2023-09-08T07:17:54.818Z,19.90
2023-09-08T07:22:55.933Z,20.07
2023-09-08T07:27:55.653Z,20.23
2023-09-08T07:32:56.093Z,20.42
2023-09-08T07:37:57.128Z,20.58
2023-09-08T07:42:57.565Z,20.75
2023-09-08T07:47:57.350Z,20.92
2023-09-08T07:52:58.997Z,21.08
2023-09-08T07:58:00.367Z,21.22
2023-09-08T08:03:01.931Z,21.37
2023-09-08T08:08:02.675Z,21.54
2023-09-08T08:13:01.834Z,21.70
2023-09-08T08:18:04.364Z,21.81
2023-09-08T08:23:04.807Z,21.94
2023-09-08T08:28:04.522Z,22.10
2023-09-08T08:33:03.876Z,22.26
2023-09-08T08:38:04.557Z,22.43
2023-09-08T08:43:05.169Z,22.62
2023-09-08T08:48:08.526Z,22.81
2023-09-08T08:53:23.545Z,23.01
2023-09-08T08:58:28.083Z,23.21
2023-09-08T09:03:34.262Z,23.40
2023-09-08T09:08:36.329Z,23.57
2023-09-08T09:13:36.882Z,23.73
2023-09-08T09:18:56.120Z,23.89
2023-09-08T09:23:57.050Z,24.09
2023-09-08T09:29:01.620Z,24.28
2023-09-08T09:34:11.944Z,24.47
2023-09-08T09:39:12.640Z,24.70
2023-09-08T09:44:13.592Z,24.95
2023-09-08T09:49:19.068Z,25.23
2023-09-08T09:54:19.797Z,25.56
2023-09-08T09:59:19.937Z,25.85
2023-09-08T10:04:20.874Z,26.13
2023-09-08T10:09:25.409Z,26.42
2023-09-08T10:14:26.049Z,26.75
2023-09-08T10:19:29.245Z,27.16
2023-09-08T10:24:35.082Z,27.59
2023-09-08T10:29:37.259Z,27.98
2023-09-08T10:34:39.847Z,28.19
2023-09-08T10:39:43.098Z,28.35
2023-09-08T10:44:45.105Z,28.52
2023-09-08T10:49:47.821Z,28.54
2023-09-08T10:54:56.288Z,28.48
2023-09-08T11:00:01.375Z,28.23
2023-09-08T11:05:01.532Z,28.07
2023-09-08T11:10:01.676Z,27.90
2023-09-08T11:15:02.543Z,27.79
2023-09-08T11:20:02.639Z,27.95
2023-09-08T11:25:05.881Z,28.08
2023-09-08T11:30:08.370Z,28.13
2023-09-08T11:35:12.563Z,28.40
2023-09-08T11:40:15.583Z,28.78
2023-09-08T11:45:19.418Z,29.09
2023-09-08T11:50:20.828Z,29.16
2023-09-08T11:55:30.432Z,28.85
2023-09-08T12:00:34.245Z,28.59
2023-09-08T12:05:41.403Z,28.44
2023-09-08T12:10:47.103Z,28.44
2023-09-08T12:15:47.737Z,28.60
2023-09-08T12:20:49.524Z,28.83
2023-09-08T12:25:56.427Z,28.97
2023-09-08T12:30:57.074Z,29.05
2023-09-08T12:35:56.506Z,29.29
2023-09-08T12:40:56.548Z,29.60
2023-09-08T12:45:58.947Z,29.70
2023-09-08T12:50:59.942Z,29.67
2023-09-08T12:56:09.490Z,29.46
2023-09-08T13:01:08.722Z,29.52
2023-09-08T13:06:09.429Z,29.83
2023-09-08T13:11:14.946Z,30.16
2023-09-08T13:16:17.614Z,30.67
2023-09-08T13:21:16.978Z,31.27
2023-09-08T13:26:19.024Z,31.80
2023-09-08T13:31:21.848Z,32.08
2023-09-08T13:36:21.236Z,31.83
2023-09-08T13:41:23.494Z,31.79
2023-09-08T13:46:35.653Z,31.94
2023-09-08T13:51:42.724Z,32.15
2023-09-08T13:56:45.391Z,32.34
2023-09-08T14:01:53.983Z,32.67
2023-09-08T14:07:08.576Z,33.04
2023-09-08T14:12:33.298Z,33.25
2023-09-08T14:17:41.248Z,33.25
2023-09-08T14:22:41.064Z,33.14
2023-09-08T14:27:42.513Z,33.13
2023-09-08T14:32:42.310Z,32.98
2023-09-08T14:37:41.225Z,33.05
2023-09-08T14:42:40.911Z,33.17
2023-09-08T14:47:40.480Z,33.25
2023-09-08T14:52:42.686Z,33.00
2023-09-08T14:57:43.559Z,32.60
2023-09-08T15:02:42.949Z,32.10
2023-09-08T15:07:42.707Z,31.63
2023-09-08T15:12:41.985Z,31.27
2023-09-08T15:17:44.543Z,30.95
2023-09-08T15:22:44.167Z,30.61
2023-09-08T15:27:44.464Z,30.23
2023-09-08T15:32:43.736Z,29.87
2023-09-08T15:37:45.082Z,29.56
2023-09-08T15:42:46.718Z,29.23
2023-09-08T15:47:46.107Z,28.86
2023-09-08T15:52:54.420Z,28.67
2023-09-08T15:57:59.891Z,28.55
2023-09-08T16:02:59.434Z,28.47
2023-09-08T16:08:12.574Z,28.43
2023-09-08T16:13:26.604Z,28.42
2023-09-08T16:18:26.176Z,28.41
2023-09-08T16:23:36.870Z,28.36
2023-09-08T16:28:37.536Z,28.31
2023-09-08T16:33:40.408Z,28.26
2023-09-08T16:38:40.215Z,28.19
2023-09-08T16:43:40.104Z,28.09
2023-09-08T16:48:41.906Z,27.95
2023-09-08T16:53:50.529Z,27.76
2023-09-08T16:58:51.158Z,27.50
2023-09-08T17:03:51.015Z,27.27
2023-09-08T17:08:52.860Z,27.00
2023-09-08T17:13:53.938Z,26.74
2023-09-08T17:18:54.181Z,26.47
2023-09-08T17:23:53.584Z,26.19
2023-09-08T17:28:53.573Z,25.89
2023-09-08T17:34:02.499Z,25.59
2023-09-08T17:39:02.725Z,25.30
2023-09-08T17:44:02.853Z,25.03
2023-09-08T17:49:04.224Z,24.73
2023-09-08T17:54:03.726Z,24.47
2023-09-08T17:59:03.507Z,24.23
2023-09-08T18:04:03.879Z,24.02
2023-09-08T18:09:03.724Z,23.83
2023-09-08T18:14:04.470Z,23.66
2023-09-08T18:19:05.251Z,23.48
2023-09-08T18:24:06.058Z,23.31
2023-09-08T18:29:08.724Z,23.14
2023-09-08T18:34:10.237Z,22.96
2023-09-08T18:39:11.035Z,22.78
2023-09-08T18:44:12.599Z,22.66
2023-09-08T18:49:11.960Z,22.53
2023-09-08T18:54:13.758Z,22.38
2023-09-08T18:59:14.302Z,22.24
2023-09-08T19:04:14.008Z,22.09
2023-09-08T19:09:14.200Z,21.95
2023-09-08T19:14:15.806Z,21.81
2023-09-08T19:19:16.015Z,21.67
2023-09-08T19:24:19.296Z,21.54
2023-09-08T19:29:20.785Z,21.41
2023-09-08T19:34:21.949Z,21.27
2023-09-08T19:39:26.590Z,21.13
2023-09-08T19:44:28.312Z,20.99
2023-09-08T19:49:36.803Z,20.87
2023-09-08T19:54:48.935Z,20.75
2023-09-08T19:59:51.710Z,20.62
2023-09-08T20:04:57.379Z,20.50
2023-09-08T20:09:58.401Z,20.37
2023-09-08T20:15:01.014Z,20.25
2023-09-08T20:20:00.439Z,20.12
2023-09-08T20:25:00.652Z,19.99
2023-09-08T20:30:02.049Z,19.87
2023-09-08T20:35:02.451Z,19.75
2023-09-08T20:40:04.685Z,19.63
2023-09-08T20:45:05.602Z,19.52
2023-09-08T20:50:05.716Z,19.39
2023-09-08T20:55:05.792Z,19.28
2023-09-08T21:00:06.256Z,19.18
2023-09-08T21:05:07.124Z,19.09
2023-09-08T21:10:07.312Z,18.98
2023-09-08T21:15:08.376Z,18.88
2023-09-08T21:20:14.407Z,18.77
2023-09-08T21:25:15.113Z,18.69
2023-09-08T21:30:15.749Z,18.60
2023-09-08T21:35:16.223Z,18.50
2023-09-08T21:40:17.731Z,18.41
2023-09-08T21:45:17.991Z,18.32
2023-09-08T21:50:17.776Z,18.25
2023-09-08T21:55:19.201Z,18.16
2023-09-08T22:00:23.412Z,18.08
2023-09-08T22:05:23.784Z,17.99
2023-09-08T22:10:24.131Z,17.90
2023-09-08T22:15:23.623Z,17.83
2023-09-08T22:20:23.978Z,17.75
2023-09-08T22:25:24.460Z,17.68
2023-09-08T22:30:24.209Z,17.62
2023-09-08T22:35:23.506Z,17.56
2023-09-08T22:40:23.515Z,17.49
2023-09-08T22:45:23.718Z,17.43
2023-09-08T22:50:24.478Z,17.37
2023-09-08T22:55:26.088Z,17.31
2023-09-08T23:00:26.534Z,17.24
2023-09-08T23:05:26.134Z,17.17
2023-09-08T23:10:29.094Z,17.11
2023-09-08T23:15:29.956Z,17.04
2023-09-08T23:20:31.222Z,16.99
2023-09-08T23:25:32.163Z,16.92
2023-09-08T23:30:32.201Z,16.84
2023-09-08T23:35:31.520Z,16.78
2023-09-08T23:40:31.317Z,16.69
2023-09-08T23:45:30.724Z,16.63
2023-09-08T23:50:57.744Z,16.58
2023-09-08T23:55:58.584Z,16.52
